Terminal Aerodrome Forecast
Issued by NWS Cleveland, OH

Home | Current Version | Previous Version | Text Only | Print | Product List | Glossary On
Versions: 1 2 3 4 5 6 7 8 9 10 11 12 13 14 15 16 17 18 19 20
000
FTUS41 KCLE 212100 AAA
TAFCAK
TAF AMD
KCAK 212124Z 2121/2218 33012KT 4SM -RA BR SCT006 OVC015
      TEMPO 2123/2202 2SM -RA BKN006 OVC015
     FM220300 35010KT P6SM SCT008 OVC015
      TEMPO 2203/2206 -RA OVC008
     FM221200 36010KT P6SM OVC025=

USA.gov is the U.S. government's official web portal to all federal, state and local government web resources and services.